createdAt,value
2022-10-26T00:01:33.450Z,0.82
2022-10-26T00:04:00.054Z,1.35
2022-10-26T00:06:26.803Z,1.20
2022-10-26T00:08:53.337Z,1.15
2022-10-26T00:11:19.981Z,1.00
2022-10-26T00:13:47.684Z,1.38
2022-10-26T00:16:24.463Z,1.00
2022-10-26T00:18:51.193Z,1.20
2022-10-26T00:21:18.383Z,1.13
2022-10-26T00:23:45.170Z,1.77
2022-10-26T00:26:12.194Z,1.10
2022-10-26T00:28:38.941Z,1.15
2022-10-26T00:31:08.492Z,1.17
2022-10-26T00:33:35.545Z,1.05
2022-10-26T00:36:02.226Z,0.90
2022-10-26T00:38:28.799Z,0.80
2022-10-26T00:40:55.530Z,1.48
2022-10-26T00:43:21.966Z,1.00
2022-10-26T00:45:55.471Z,1.15
2022-10-26T00:48:28.640Z,1.02
2022-10-26T00:50:58.728Z,1.45
2022-10-26T00:53:25.566Z,0.98
2022-10-26T00:55:53.937Z,1.25
2022-10-26T00:58:21.798Z,1.23
2022-10-26T01:03:31.819Z,1.20
2022-10-26T01:05:58.782Z,1.42
2022-10-26T01:08:26.484Z,1.40
2022-10-26T01:10:53.361Z,1.70
2022-10-26T01:13:20.587Z,1.23
2022-10-26T01:16:21.924Z,1.48
2022-10-26T01:19:23.686Z,1.42
2022-10-26T01:22:06.691Z,1.30
2022-10-26T01:24:41.623Z,1.48
2022-10-26T01:27:11.226Z,1.40
2022-10-26T01:29:51.108Z,0.98
2022-10-26T01:32:20.216Z,1.10
2022-10-26T01:35:18.775Z,1.20
2022-10-26T01:37:57.775Z,1.00
2022-10-26T01:40:34.723Z,0.88
2022-10-26T01:43:05.713Z,1.38
2022-10-26T01:45:35.233Z,1.00
2022-10-26T01:48:04.312Z,1.38
2022-10-26T01:50:32.268Z,0.73
2022-10-26T01:52:58.762Z,1.25
2022-10-26T01:55:51.069Z,1.10
2022-10-26T01:58:54.804Z,0.85
2022-10-26T02:01:46.094Z,1.00
2022-10-26T02:04:31.105Z,0.88
2022-10-26T02:07:02.160Z,1.27
2022-10-26T02:09:43.905Z,1.10
2022-10-26T02:12:40.461Z,1.10
2022-10-26T02:15:31.585Z,1.00
2022-10-26T02:18:06.442Z,1.00
2022-10-26T02:20:44.605Z,1.08
2022-10-26T02:23:12.795Z,1.38
2022-10-26T02:28:19.920Z,1.17
2022-10-26T02:30:52.401Z,1.25
2022-10-26T02:33:21.105Z,1.75
2022-10-26T02:35:52.629Z,1.13
2022-10-26T02:38:21.377Z,1.10
2022-10-26T02:40:51.440Z,1.25
2022-10-26T02:43:19.828Z,1.13
2022-10-26T02:45:54.046Z,0.90
2022-10-26T02:48:21.385Z,1.08
2022-10-26T02:51:00.119Z,1.13
2022-10-26T02:53:51.873Z,1.10
2022-10-26T02:56:24.574Z,1.13
2022-10-26T02:58:58.077Z,1.05
2022-10-26T03:01:25.338Z,0.98
2022-10-26T03:03:51.954Z,0.70
2022-10-26T03:06:22.846Z,0.75
2022-10-26T03:08:49.951Z,1.83
2022-10-26T03:11:17.186Z,1.30
2022-10-26T03:13:44.139Z,1.30
2022-10-26T03:16:11.549Z,1.58
2022-10-26T03:18:38.065Z,1.08
2022-10-26T03:21:04.769Z,0.85
2022-10-26T03:23:31.265Z,1.10
2022-10-26T03:25:59.012Z,1.00
2022-10-26T03:28:25.959Z,1.02
2022-10-26T03:30:52.492Z,0.70
2022-10-26T03:33:19.021Z,0.80
2022-10-26T03:35:45.646Z,1.05
2022-10-26T03:38:15.913Z,0.70
2022-10-26T03:40:42.697Z,0.80
2022-10-26T03:43:09.258Z,0.85
2022-10-26T03:45:35.719Z,0.65
2022-10-26T03:48:02.187Z,0.75
2022-10-26T03:50:28.799Z,1.40
2022-10-26T03:52:55.252Z,0.88
2022-10-26T03:55:21.776Z,0.82
2022-10-26T03:57:48.248Z,0.95
2022-10-26T04:00:16.849Z,0.70
2022-10-26T04:02:44.991Z,0.80
2022-10-26T04:07:37.962Z,0.43
2022-10-26T04:10:05.628Z,0.70
2022-10-26T04:12:32.224Z,1.20
2022-10-26T04:14:58.752Z,0.80
2022-10-26T04:17:25.323Z,0.95
2022-10-26T04:19:51.788Z,0.90
2022-10-26T04:22:18.287Z,1.20
2022-10-26T04:24:44.832Z,0.43
2022-10-26T04:27:11.282Z,1.10
2022-10-26T04:29:37.768Z,1.33
2022-10-26T04:32:04.602Z,1.33
2022-10-26T04:34:31.076Z,1.25
2022-10-26T04:36:57.538Z,1.30
2022-10-26T04:39:24.198Z,1.30
2022-10-26T04:41:50.668Z,0.90
2022-10-26T04:44:17.329Z,1.10
2022-10-26T04:46:44.050Z,1.10
2022-10-26T04:49:10.740Z,0.85
2022-10-26T04:51:37.229Z,0.90
2022-10-26T04:54:03.867Z,0.90
2022-10-26T04:56:30.542Z,0.85
2022-10-26T04:58:57.298Z,0.90
2022-10-26T05:01:24.046Z,0.63
2022-10-26T05:03:51.485Z,1.00
2022-10-26T05:06:18.003Z,0.93
2022-10-26T05:08:44.703Z,0.90
2022-10-26T05:11:11.280Z,1.10
2022-10-26T05:13:37.794Z,0.90
2022-10-26T05:16:04.625Z,0.68
2022-10-26T05:18:31.183Z,1.27
2022-10-26T05:20:57.678Z,0.98
2022-10-26T05:23:24.379Z,1.00
2022-10-26T05:25:51.237Z,0.52
2022-10-26T05:28:18.320Z,1.20
2022-10-26T05:30:46.243Z,1.58
2022-10-26T05:33:14.319Z,1.10
2022-10-26T05:38:09.528Z,0.85
2022-10-26T05:40:36.550Z,1.00
2022-10-26T05:43:03.118Z,0.85
2022-10-26T05:45:30.190Z,0.80
2022-10-26T05:47:59.959Z,0.70
2022-10-26T05:50:29.166Z,0.80
2022-10-26T05:52:55.730Z,1.10
2022-10-26T05:55:22.867Z,0.80
2022-10-26T05:57:50.058Z,0.70
2022-10-26T06:00:26.135Z,0.65
2022-10-26T06:03:23.854Z,0.82
2022-10-26T06:08:19.361Z,1.00
2022-10-26T06:10:46.872Z,1.10
2022-10-26T06:13:13.708Z,1.13
2022-10-26T06:15:58.158Z,0.90
2022-10-26T06:18:49.683Z,1.05
2022-10-26T06:21:16.168Z,1.15
2022-10-26T06:23:54.738Z,1.30
2022-10-26T06:26:42.741Z,1.10
2022-10-26T06:29:55.844Z,0.85
2022-10-26T06:32:24.114Z,0.80
2022-10-26T06:34:56.872Z,0.70
2022-10-26T06:37:24.940Z,0.80
2022-10-26T06:39:54.693Z,0.52
2022-10-26T06:42:21.706Z,0.80
2022-10-26T06:44:48.875Z,0.85
2022-10-26T06:47:24.551Z,0.60
2022-10-26T06:49:59.587Z,0.82
2022-10-26T06:52:38.747Z,0.70
2022-10-26T06:55:05.881Z,0.95
2022-10-26T06:57:35.629Z,0.80
2022-10-26T07:00:06.655Z,0.95
2022-10-26T07:02:33.297Z,0.63
2022-10-26T07:04:59.904Z,0.93
2022-10-26T07:07:29.249Z,0.70
2022-10-26T07:09:56.020Z,1.15
2022-10-26T07:12:22.565Z,0.93
2022-10-26T07:14:49.100Z,0.93
2022-10-26T07:17:15.600Z,1.27
2022-10-26T07:19:42.081Z,0.60
2022-10-26T07:22:08.577Z,0.52
2022-10-26T07:24:35.157Z,1.20
2022-10-26T07:27:01.725Z,0.80
2022-10-26T07:29:28.354Z,1.45
2022-10-26T07:31:54.951Z,1.40
2022-10-26T07:34:21.551Z,1.20
2022-10-26T07:36:48.006Z,0.88
2022-10-26T07:39:14.512Z,1.10
2022-10-26T07:41:41.255Z,0.82
2022-10-26T07:44:07.705Z,0.80
2022-10-26T07:46:34.210Z,1.23
2022-10-26T07:49:00.800Z,1.65
2022-10-26T07:51:27.556Z,1.00
2022-10-26T07:53:54.015Z,0.80
2022-10-26T07:56:20.529Z,0.80
2022-10-26T07:58:46.984Z,1.13
2022-10-26T08:01:15.080Z,1.10
2022-10-26T08:03:42.244Z,0.65
2022-10-26T08:06:08.842Z,0.75
2022-10-26T08:08:35.380Z,0.82
2022-10-26T08:11:02.610Z,0.65
2022-10-26T08:13:29.458Z,0.77
2022-10-26T08:15:59.420Z,0.60
2022-10-26T08:18:25.978Z,0.75
2022-10-26T08:20:53.296Z,0.70
2022-10-26T08:23:20.352Z,0.50
2022-10-26T08:25:46.895Z,0.40
2022-10-26T08:28:13.807Z,1.20
2022-10-26T08:30:40.319Z,0.60
2022-10-26T08:33:08.100Z,0.63
2022-10-26T08:35:34.591Z,1.05
2022-10-26T08:38:01.134Z,0.60
2022-10-26T08:40:32.277Z,0.60
2022-10-26T08:43:18.570Z,0.82
2022-10-26T08:45:54.728Z,0.57
2022-10-26T08:48:27.075Z,0.50
2022-10-26T08:50:56.915Z,0.63
2022-10-26T08:53:52.630Z,0.75
2022-10-26T08:56:21.461Z,0.60
2022-10-26T08:59:14.357Z,0.90
2022-10-26T09:01:41.033Z,1.05
2022-10-26T09:04:12.431Z,1.08
2022-10-26T09:06:47.979Z,0.50
2022-10-26T09:09:59.106Z,0.95
2022-10-26T09:12:53.754Z,0.77
2022-10-26T09:16:00.301Z,0.70
2022-10-26T09:18:51.791Z,0.63
2022-10-26T09:21:31.141Z,0.70
2022-10-26T09:24:19.311Z,0.85
2022-10-26T09:26:54.613Z,0.98
2022-10-26T09:29:27.663Z,0.90
2022-10-26T09:31:56.841Z,0.60
2022-10-26T09:34:31.672Z,0.70
2022-10-26T09:36:58.557Z,0.40
2022-10-26T09:39:45.340Z,0.93
2022-10-26T09:42:38.892Z,0.55
2022-10-26T09:45:25.650Z,0.70
2022-10-26T09:47:54.824Z,0.68
2022-10-26T09:50:28.498Z,0.82
2022-10-26T09:52:55.013Z,1.20
2022-10-26T09:55:21.555Z,0.85
2022-10-26T09:57:52.176Z,1.08
2022-10-26T10:00:21.446Z,0.85
2022-10-26T10:02:53.630Z,1.17
2022-10-26T10:08:20.407Z,0.50
2022-10-26T10:11:07.281Z,0.70
2022-10-26T10:13:37.231Z,0.60
2022-10-26T10:16:10.424Z,0.68
2022-10-26T10:18:38.016Z,0.45
2022-10-26T10:21:05.961Z,0.60
2022-10-26T10:26:09.191Z,0.60
2022-10-26T10:28:35.814Z,0.52
2022-10-26T10:31:05.498Z,0.70
2022-10-26T10:33:33.327Z,0.70
2022-10-26T10:36:00.642Z,0.50
2022-10-26T10:38:27.468Z,0.63
2022-10-26T10:41:00.375Z,0.90
2022-10-26T10:43:27.415Z,0.68
2022-10-26T10:45:59.535Z,0.75
2022-10-26T10:48:29.671Z,0.77
2022-10-26T10:51:01.733Z,0.73
2022-10-26T10:53:36.780Z,0.70
2022-10-26T10:56:19.216Z,0.77
2022-10-26T10:58:57.180Z,0.75
2022-10-26T11:01:31.397Z,0.70
2022-10-26T11:04:22.105Z,1.10
2022-10-26T11:06:50.393Z,0.70
2022-10-26T11:09:20.794Z,1.15
2022-10-26T11:11:55.556Z,0.85
2022-10-26T11:14:35.373Z,0.60
2022-10-26T11:17:22.172Z,0.85
2022-10-26T11:20:02.561Z,0.70
2022-10-26T11:22:35.110Z,0.63
2022-10-26T11:25:16.904Z,0.68
2022-10-26T11:27:49.282Z,1.35
2022-10-26T11:30:22.158Z,0.88
2022-10-26T11:32:52.118Z,0.75
2022-10-26T11:35:30.963Z,0.80
2022-10-26T11:38:28.094Z,1.00
2022-10-26T11:41:21.743Z,1.02
2022-10-26T11:43:54.853Z,0.52
2022-10-26T11:46:28.341Z,0.70
2022-10-26T11:49:00.783Z,1.25
2022-10-26T11:51:30.343Z,1.15
2022-10-26T11:54:01.692Z,0.98
2022-10-26T11:56:35.937Z,1.02
2022-10-26T12:01:57.017Z,1.30
2022-10-26T12:04:29.980Z,2.00
2022-10-26T12:07:01.825Z,1.33
2022-10-26T12:09:35.850Z,1.60
2022-10-26T12:12:19.280Z,1.00
2022-10-26T12:15:03.847Z,1.13
2022-10-26T12:17:55.657Z,0.80
2022-10-26T12:20:48.879Z,1.25
2022-10-26T12:23:23.319Z,1.20
2022-10-26T12:26:28.186Z,1.08
2022-10-26T12:29:03.363Z,1.35
2022-10-26T12:31:33.054Z,1.30
2022-10-26T12:34:00.358Z,1.00
2022-10-26T12:36:56.257Z,1.15
2022-10-26T12:39:36.096Z,1.77
2022-10-26T12:42:05.719Z,1.30
2022-10-26T12:44:34.850Z,1.80
2022-10-26T12:47:01.435Z,1.45
2022-10-26T12:50:05.226Z,1.60
2022-10-26T12:52:51.633Z,1.13
2022-10-26T12:55:39.161Z,1.50
2022-10-26T12:58:42.146Z,0.82
2022-10-26T13:01:22.043Z,1.65
2022-10-26T13:04:19.503Z,1.70
2022-10-26T13:07:07.332Z,1.30
2022-10-26T13:12:02.642Z,1.42
2022-10-26T13:14:39.350Z,1.77
2022-10-26T13:17:17.932Z,2.00
2022-10-26T13:19:49.231Z,2.00
2022-10-26T13:22:19.643Z,1.98
2022-10-26T13:24:55.963Z,2.00
2022-10-26T13:27:27.411Z,1.90
2022-10-26T13:30:03.110Z,1.73
2022-10-26T13:32:39.035Z,1.58
2022-10-26T13:35:12.027Z,1.35
2022-10-26T13:37:46.293Z,1.75
2022-10-26T13:40:17.520Z,1.55
2022-10-26T13:42:54.646Z,1.30
2022-10-26T13:45:30.707Z,1.80
2022-10-26T13:48:18.457Z,1.80
2022-10-26T13:53:45.747Z,1.50
2022-10-26T13:56:22.191Z,1.60
2022-10-26T13:58:55.301Z,1.15
2022-10-26T14:01:23.371Z,1.45
2022-10-26T14:06:26.664Z,1.52
2022-10-26T14:08:57.617Z,1.75
2022-10-26T14:11:32.624Z,1.23
2022-10-26T14:13:59.977Z,2.25
2022-10-26T14:16:30.041Z,1.10
2022-10-26T14:18:56.576Z,1.33
2022-10-26T14:21:23.198Z,2.20
2022-10-26T14:23:53.574Z,1.45
2022-10-26T14:26:38.451Z,1.27
2022-10-26T14:29:16.613Z,1.60
2022-10-26T14:31:43.185Z,1.63
2022-10-26T14:34:13.657Z,1.80
2022-10-26T14:36:46.144Z,1.83
2022-10-26T14:39:32.857Z,1.35
2022-10-26T14:42:05.828Z,2.08
2022-10-26T14:44:32.412Z,1.38
2022-10-26T14:46:59.300Z,1.30
2022-10-26T14:49:27.820Z,1.73
2022-10-26T14:52:05.548Z,1.48
2022-10-26T14:54:33.032Z,2.53
2022-10-26T14:56:59.590Z,1.60
2022-10-26T14:59:28.822Z,1.58
2022-10-26T15:02:15.546Z,2.13
2022-10-26T15:04:57.166Z,1.38
2022-10-26T15:07:23.958Z,1.65
2022-10-26T15:09:52.445Z,1.40
2022-10-26T15:12:38.904Z,1.48
2022-10-26T15:18:25.029Z,1.70
2022-10-26T15:20:53.250Z,1.75
2022-10-26T15:23:21.468Z,1.88
2022-10-26T15:26:01.834Z,1.02
2022-10-26T15:28:38.354Z,2.03
2022-10-26T15:31:12.638Z,1.85
2022-10-26T15:33:41.673Z,2.45
2022-10-26T15:36:08.148Z,2.05
2022-10-26T15:38:35.494Z,2.30
2022-10-26T15:41:03.862Z,3.28
2022-10-26T15:43:30.364Z,3.50
2022-10-26T15:45:57.050Z,3.50
2022-10-26T15:48:28.569Z,3.83
2022-10-26T15:50:55.791Z,4.10
2022-10-26T15:53:25.619Z,3.47
2022-10-26T15:55:53.695Z,2.75
2022-10-26T16:00:46.931Z,2.15
2022-10-26T16:03:16.815Z,3.33
2022-10-26T16:05:43.324Z,2.70
2022-10-26T16:08:17.745Z,1.90
2022-10-26T16:10:45.670Z,1.60
2022-10-26T16:13:13.424Z,1.47
2022-10-26T16:15:40.240Z,1.38
2022-10-26T16:18:07.053Z,1.25
2022-10-26T16:20:33.744Z,1.67
2022-10-26T16:23:00.393Z,1.45
2022-10-26T16:25:27.041Z,1.35
2022-10-26T16:27:55.252Z,1.50
2022-10-26T16:32:53.698Z,0.90
2022-10-26T16:35:20.287Z,2.08
2022-10-26T16:37:46.853Z,2.30
2022-10-26T16:40:13.819Z,3.42
2022-10-26T16:42:40.360Z,3.90
2022-10-26T16:45:06.955Z,3.60
2022-10-26T16:47:33.628Z,3.72
2022-10-26T16:50:00.380Z,4.22
2022-10-26T16:52:26.864Z,3.40
2022-10-26T16:54:53.379Z,2.90
2022-10-26T16:57:19.931Z,2.83
2022-10-26T16:59:46.488Z,2.95
2022-10-26T17:02:14.429Z,2.80
2022-10-26T17:07:07.523Z,3.47
2022-10-26T17:09:34.015Z,3.33
2022-10-26T17:12:02.046Z,3.15
2022-10-26T17:14:29.010Z,2.72
2022-10-26T17:16:55.515Z,2.53
2022-10-26T17:19:22.142Z,2.65
2022-10-26T17:21:48.802Z,2.45
2022-10-26T17:24:18.207Z,4.15
2022-10-26T17:26:44.818Z,5.82
2022-10-26T17:29:12.968Z,5.22
2022-10-26T17:34:06.200Z,3.65
2022-10-26T17:36:32.756Z,4.20
2022-10-26T17:38:59.337Z,4.25
2022-10-26T17:41:25.831Z,4.35
2022-10-26T17:43:54.059Z,2.85
2022-10-26T17:46:35.285Z,2.50
2022-10-26T17:49:02.227Z,2.72
2022-10-26T17:51:33.897Z,3.10
2022-10-26T17:54:09.160Z,5.82
2022-10-26T17:56:36.178Z,4.35
2022-10-26T17:59:06.032Z,4.40
2022-10-26T18:01:32.939Z,3.30
2022-10-26T18:03:59.519Z,4.20
2022-10-26T18:06:26.350Z,2.92
2022-10-26T18:08:53.039Z,2.75
2022-10-26T18:11:26.437Z,3.03
2022-10-26T18:13:54.962Z,3.08
2022-10-26T18:16:22.622Z,2.75
2022-10-26T18:18:53.862Z,2.57
2022-10-26T18:24:51.548Z,3.10
2022-10-26T18:27:18.272Z,3.38
2022-10-26T18:29:44.830Z,4.97
2022-10-26T18:32:11.306Z,4.25
2022-10-26T18:34:37.886Z,3.67
2022-10-26T18:37:04.315Z,3.75
2022-10-26T18:39:30.892Z,3.47
2022-10-26T18:41:57.397Z,4.15
2022-10-26T18:44:24.021Z,4.90
2022-10-26T18:46:50.602Z,3.92
2022-10-26T18:49:18.125Z,3.60
2022-10-26T18:51:45.076Z,4.15
2022-10-26T18:54:12.193Z,4.55
2022-10-26T18:56:38.840Z,5.57
2022-10-26T18:59:05.666Z,6.13
2022-10-26T19:01:34.633Z,5.18
2022-10-26T19:04:06.970Z,3.30
2022-10-26T19:06:38.945Z,2.88
2022-10-26T19:09:06.986Z,3.60
2022-10-26T19:11:34.354Z,4.07
2022-10-26T19:14:01.104Z,3.70
2022-10-26T19:16:47.218Z,2.90
2022-10-26T19:19:15.421Z,3.42
2022-10-26T19:21:46.655Z,3.58
2022-10-26T19:24:17.675Z,2.83
2022-10-26T19:26:45.609Z,3.85
2022-10-26T19:29:14.552Z,2.95
2022-10-26T19:31:41.888Z,2.80
2022-10-26T19:34:11.404Z,2.30
2022-10-26T19:36:38.247Z,2.00
2022-10-26T19:39:05.082Z,1.73
2022-10-26T19:41:31.628Z,1.65
2022-10-26T19:46:27.925Z,1.80
2022-10-26T19:48:57.034Z,1.45
2022-10-26T19:51:24.959Z,1.80
2022-10-26T19:53:51.643Z,2.28
2022-10-26T19:56:18.639Z,2.15
2022-10-26T19:58:45.103Z,2.00
2022-10-26T20:01:13.425Z,1.73
2022-10-26T20:03:40.827Z,2.10
2022-10-26T20:06:09.324Z,2.13
2022-10-26T20:08:35.801Z,1.98
2022-10-26T20:11:03.122Z,2.50
2022-10-26T20:13:29.837Z,2.00
2022-10-26T20:15:56.389Z,7.40
2022-10-26T20:18:22.962Z,7.68
2022-10-26T20:20:49.484Z,5.57
2022-10-26T20:23:15.987Z,3.95
2022-10-26T20:25:48.137Z,3.58
2022-10-26T20:28:16.235Z,2.60
2022-10-26T20:30:43.780Z,2.60
2022-10-26T20:33:11.205Z,2.83
2022-10-26T20:35:38.458Z,2.30
2022-10-26T20:38:06.950Z,2.47
2022-10-26T20:40:34.641Z,3.22
2022-10-26T20:43:01.417Z,2.58
2022-10-26T20:45:32.372Z,2.20
2022-10-26T20:48:00.517Z,2.95
2022-10-26T20:53:09.038Z,3.95
2022-10-26T20:56:02.198Z,2.72
2022-10-26T20:58:40.991Z,2.35
2022-10-26T21:01:25.264Z,2.63
2022-10-26T21:03:53.283Z,3.65
2022-10-26T21:06:20.304Z,2.42
2022-10-26T21:08:49.187Z,2.45
2022-10-26T21:11:16.885Z,2.22
2022-10-26T21:13:45.729Z,1.85
2022-10-26T21:16:12.750Z,1.75
2022-10-26T21:18:39.748Z,2.30
2022-10-26T21:21:06.819Z,1.63
2022-10-26T21:23:35.547Z,1.45
2022-10-26T21:26:03.143Z,2.10
2022-10-26T21:28:34.667Z,1.58
2022-10-26T21:31:05.438Z,1.58
2022-10-26T21:33:32.011Z,1.95
2022-10-26T21:36:03.273Z,3.30
2022-10-26T21:38:31.434Z,1.60
2022-10-26T21:43:31.854Z,2.15
2022-10-26T21:45:59.411Z,2.35
2022-10-26T21:48:27.353Z,1.83
2022-10-26T21:50:54.068Z,2.42
2022-10-26T21:53:20.859Z,1.80
2022-10-26T21:55:47.714Z,1.80
2022-10-26T21:58:17.318Z,2.63
2022-10-26T22:00:43.858Z,2.35
2022-10-26T22:03:10.346Z,2.33
2022-10-26T22:05:36.838Z,1.95
2022-10-26T22:08:03.579Z,1.83
2022-10-26T22:10:30.036Z,1.50
2022-10-26T22:12:58.627Z,1.70
2022-10-26T22:15:25.184Z,1.40
2022-10-26T22:17:54.632Z,1.75
2022-10-26T22:20:21.143Z,1.92
2022-10-26T22:22:47.637Z,1.75
2022-10-26T22:25:14.086Z,1.35
2022-10-26T22:27:40.617Z,1.88
2022-10-26T22:30:07.921Z,1.27
2022-10-26T22:32:34.394Z,1.77
2022-10-26T22:35:30.411Z,1.50
2022-10-26T22:37:47.432Z,1.48
2022-10-26T22:40:13.962Z,1.58
2022-10-26T22:42:40.507Z,1.50
2022-10-26T22:45:07.640Z,1.42
2022-10-26T22:47:34.213Z,0.90
2022-10-26T22:50:00.677Z,1.55
2022-10-26T22:52:27.516Z,1.65
2022-10-26T22:54:54.026Z,1.25
2022-10-26T22:57:20.497Z,1.63
2022-10-26T22:59:47.030Z,1.33
2022-10-26T23:02:13.740Z,1.38
2022-10-26T23:04:40.358Z,1.02
2022-10-26T23:07:06.943Z,1.30
2022-10-26T23:09:33.461Z,1.40
2022-10-26T23:12:00.010Z,1.63
2022-10-26T23:14:26.790Z,1.55
2022-10-26T23:16:53.272Z,1.67
2022-10-26T23:19:19.851Z,2.15
2022-10-26T23:21:46.387Z,1.83
2022-10-26T23:24:12.824Z,0.95
2022-10-26T23:26:39.351Z,1.00
2022-10-26T23:29:05.924Z,1.90
2022-10-26T23:31:32.416Z,2.00
2022-10-26T23:33:58.942Z,2.15
2022-10-26T23:36:25.633Z,1.80
2022-10-26T23:38:52.088Z,1.50
2022-10-26T23:41:18.668Z,1.92
2022-10-26T23:43:45.189Z,1.80
2022-10-26T23:46:11.851Z,1.10
2022-10-26T23:48:38.446Z,1.88
2022-10-26T23:51:05.208Z,2.30
2022-10-26T23:53:31.765Z,1.88
2022-10-26T23:55:58.288Z,1.63
2022-10-26T23:58:24.820Z,1.50
